Time;durP1;ratioP1;P1;durP2;ratioP2;P2;SDS_P1;SDS_P2;PMS_P1;PMS_P2;Temp;Humidity;BMP_temperature;BMP_pressure;BME280_temperature;BME280_humidity;BME280_pressure;Samples;Min_cycle;Max_cycle;Signal;HPM_P1;HPM_P2
2021/11/29 00:02:10;;;;;;;43.50;14.73;;;;;;;;;;5062353;28;20031;-62
2021/11/29 00:04:36;;;;;;;35.40;15.15;;;;;;;;;;5055895;28;20031;-64
2021/11/29 00:07:01;;;;;;;49.70;15.77;;;;;;;;;;5059038;28;20033;-63
2021/11/29 00:09:27;;;;;;;42.03;14.52;;;;;;;;;;5062066;28;20142;-63
2021/11/29 00:11:53;;;;;;;48.33;14.93;;;;;;;;;;5062266;28;20427;-63
2021/11/29 00:14:18;;;;;;;46.80;15.10;;;;;;;;;;5065736;28;20052;-63
2021/11/29 00:16:44;;;;;;;41.03;13.55;;;;;;;;;;5058764;28;20543;-62
2021/11/29 00:19:10;;;;;;;39.47;13.35;;;;;;;;;;5061492;28;20487;-63
2021/11/29 00:21:36;;;;;;;39.20;13.05;;;;;;;;;;5055462;28;20029;-63
2021/11/29 00:24:03;;;;;;;33.78;12.68;;;;;;;;;;5065488;28;20035;-63
2021/11/29 00:26:29;;;;;;;36.13;12.70;;;;;;;;;;5062227;28;20029;-63
2021/11/29 00:28:55;;;;;;;32.53;11.82;;;;;;;;;;5067259;28;20093;-63
2021/11/29 00:31:21;;;;;;;43.40;12.88;;;;;;;;;;5064863;28;20036;-62
2021/11/29 00:33:47;;;;;;;27.40;11.27;;;;;;;;;;5062919;28;20032;-62
2021/11/29 00:36:15;;;;;;;30.88;12.65;;;;;;;;;;5061711;28;20029;-62
2021/11/29 00:38:42;;;;;;;42.58;12.40;;;;;;;;;;5063403;28;20122;-62
2021/11/29 00:41:08;;;;;;;37.88;12.73;;;;;;;;;;5066917;28;20111;-62
2021/11/29 00:43:34;;;;;;;32.95;12.45;;;;;;;;;;5067125;28;20054;-62
2021/11/29 00:45:59;;;;;;;36.92;11.48;;;;;;;;;;5063580;28;20039;-63
2021/11/29 00:48:25;;;;;;;30.95;12.18;;;;;;;;;;5063842;28;20151;-63
2021/11/29 00:50:50;;;;;;;27.63;11.70;;;;;;;;;;5064449;28;20040;-62
2021/11/29 00:53:16;;;;;;;35.85;12.70;;;;;;;;;;5064965;28;20031;-63
2021/11/29 00:55:42;;;;;;;39.20;12.13;;;;;;;;;;5063152;28;20020;-62
2021/11/29 00:58:08;;;;;;;37.17;11.98;;;;;;;;;;5064773;28;20033;-62
2021/11/29 01:00:36;;;;;;;31.17;11.48;;;;;;;;;;5056624;28;20441;-63
2021/11/29 01:03:01;;;;;;;32.53;11.75;;;;;;;;;;5063120;28;20245;-62
2021/11/29 01:05:27;;;;;;;35.10;11.85;;;;;;;;;;5067351;28;20216;-62
2021/11/29 01:07:53;;;;;;;34.33;11.68;;;;;;;;;;5064622;28;20116;-64
2021/11/29 01:10:19;;;;;;;32.50;11.35;;;;;;;;;;5061560;28;20035;-64
2021/11/29 01:12:46;;;;;;;33.80;11.25;;;;;;;;;;5062841;28;20036;-63
2021/11/29 01:15:16;;;;;;;28.20;11.35;;;;;;;;;;5063026;28;20033;-63
2021/11/29 01:17:42;;;;;;;31.15;11.85;;;;;;;;;;5062747;28;20028;-63
2021/11/29 01:20:10;;;;;;;32.95;11.70;;;;;;;;;;5064441;28;20182;-63
2021/11/29 01:22:36;;;;;;;38.40;11.43;;;;;;;;;;5061598;28;20363;-63
2021/11/29 01:25:02;;;;;;;27.65;11.25;;;;;;;;;;5065068;28;20040;-63
2021/11/29 01:27:28;;;;;;;31.70;11.85;;;;;;;;;;5066661;28;20186;-63
2021/11/29 01:29:53;;;;;;;37.63;12.60;;;;;;;;;;5064736;28;20174;-63
2021/11/29 01:32:19;;;;;;;32.95;11.50;;;;;;;;;;5060465;28;20556;-63
2021/11/29 01:34:44;;;;;;;32.85;11.95;;;;;;;;;;5067285;28;20036;-63
2021/11/29 01:37:10;;;;;;;35.70;11.45;;;;;;;;;;5059889;28;20523;-62
2021/11/29 01:39:36;;;;;;;34.10;12.13;;;;;;;;;;5062455;28;20108;-62
2021/11/29 01:42:02;;;;;;;33.35;12.02;;;;;;;;;;5068096;28;20150;-63
2021/11/29 01:44:28;;;;;;;29.17;10.73;;;;;;;;;;5064532;28;20476;-63
2021/11/29 01:46:53;;;;;;;34.10;11.32;;;;;;;;;;5061654;28;20052;-63
2021/11/29 01:49:19;;;;;;;37.42;12.70;;;;;;;;;;5063918;28;20029;-63
2021/11/29 01:51:45;;;;;;;31.88;11.00;;;;;;;;;;5063235;28;20506;-62
2021/11/29 01:54:11;;;;;;;28.02;10.30;;;;;;;;;;5058278;28;20032;-62
2021/11/29 01:56:38;;;;;;;32.72;11.82;;;;;;;;;;5064734;28;20016;-62
2021/11/29 01:59:04;;;;;;;38.10;11.82;;;;;;;;;;5059621;28;20036;-62
2021/11/29 02:01:29;;;;;;;30.80;10.80;;;;;;;;;;5059339;28;20067;-62
2021/11/29 02:03:57;;;;;;;31.75;11.77;;;;;;;;;;5063308;28;20076;-62
2021/11/29 02:06:25;;;;;;;25.40;9.40;;;;;;;;;;5062410;28;20360;-62
2021/11/29 02:08:51;;;;;;;31.58;11.38;;;;;;;;;;5060886;28;20039;-62
2021/11/29 02:11:17;;;;;;;33.72;11.27;;;;;;;;;;5059787;28;20461;-63
2021/11/29 02:13:42;;;;;;;31.58;11.40;;;;;;;;;;5060322;28;20324;-62
2021/11/29 02:16:08;;;;;;;33.47;10.60;;;;;;;;;;5065264;28;20028;-63
2021/11/29 02:18:36;;;;;;;28.33;10.98;;;;;;;;;;5059501;28;20512;-62
2021/11/29 02:21:04;;;;;;;37.80;12.77;;;;;;;;;;5063738;28;20504;-62
2021/11/29 02:23:30;;;;;;;31.02;11.90;;;;;;;;;;5074055;28;20025;-62
2021/11/29 02:25:55;;;;;;;31.02;12.05;;;;;;;;;;5061034;28;20039;-62
2021/11/29 02:28:22;;;;;;;35.70;12.20;;;;;;;;;;5062769;28;20258;-63
2021/11/29 02:30:48;;;;;;;32.85;11.68;;;;;;;;;;5063380;28;20036;-63
2021/11/29 02:33:14;;;;;;;24.20;8.90;;;;;;;;;;5058693;28;20040;-62
2021/11/29 02:35:40;;;;;;;36.50;12.25;;;;;;;;;;5061896;28;20107;-63
2021/11/29 02:38:06;;;;;;;36.15;11.98;;;;;;;;;;5060501;28;20554;-63
2021/11/29 02:40:34;;;;;;;42.83;14.10;;;;;;;;;;5061964;28;20032;-62
2021/11/29 02:43:00;;;;;;;34.63;12.05;;;;;;;;;;5060630;28;20039;-62
2021/11/29 02:45:27;;;;;;;35.83;13.23;;;;;;;;;;5059688;28;20029;-62
2021/11/29 02:47:52;;;;;;;37.50;13.07;;;;;;;;;;5062452;28;20067;-62
2021/11/29 02:50:18;;;;;;;39.50;12.25;;;;;;;;;;5061075;28;20037;-62
2021/11/29 02:52:44;;;;;;;45.63;13.90;;;;;;;;;;5062487;28;20487;-62
2021/11/29 02:55:10;;;;;;;35.05;12.93;;;;;;;;;;5065217;28;20083;-62
2021/11/29 02:57:36;;;;;;;41.17;13.75;;;;;;;;;;5059879;28;20025;-62
2021/11/29 03:00:07;;;;;;;38.25;13.88;;;;;;;;;;5060068;28;20024;-62
2021/11/29 03:02:33;;;;;;;39.33;14.15;;;;;;;;;;5062094;28;20024;-62
2021/11/29 03:05:00;;;;;;;31.98;11.20;;;;;;;;;;5075657;28;20041;-62
2021/11/29 03:07:26;;;;;;;40.13;13.10;;;;;;;;;;5063379;28;20513;-62
2021/11/29 03:09:52;;;;;;;35.75;13.82;;;;;;;;;;5060205;28;20017;-62
2021/11/29 03:12:17;;;;;;;37.80;13.73;;;;;;;;;;5059844;28;20031;-63
2021/11/29 03:14:43;;;;;;;37.38;14.07;;;;;;;;;;5065096;28;20035;-62
2021/11/29 03:17:11;;;;;;;48.90;15.05;;;;;;;;;;5063973;28;20024;-63
2021/11/29 03:19:38;;;;;;;41.92;14.18;;;;;;;;;;5063075;28;20028;-63
2021/11/29 03:22:07;;;;;;;39.25;14.05;;;;;;;;;;5060768;28;20039;-62
2021/11/29 03:24:33;;;;;;;47.42;15.15;;;;;;;;;;5056400;28;20445;-62
2021/11/29 03:26:59;;;;;;;37.72;14.20;;;;;;;;;;5058595;28;20133;-62
2021/11/29 03:29:27;;;;;;;49.15;14.68;;;;;;;;;;5057393;28;20173;-62
2021/11/29 03:31:54;;;;;;;37.97;14.13;;;;;;;;;;5058245;28;20032;-63
2021/11/29 03:34:21;;;;;;;47.20;15.18;;;;;;;;;;5053971;28;20487;-62
2021/11/29 03:36:48;;;;;;;46.75;15.80;;;;;;;;;;5058857;28;20415;-62
2021/11/29 03:39:26;;;;;;;37.50;13.45;;;;;;;;;;5062925;28;20037;-62
2021/11/29 03:41:56;;;;;;;38.53;13.98;;;;;;;;;;5056392;28;20047;-62
2021/11/29 03:44:22;;;;;;;38.88;13.85;;;;;;;;;;5056688;28;20025;-62
2021/11/29 03:46:50;;;;;;;40.95;13.15;;;;;;;;;;5061877;28;20511;-62
2021/11/29 03:49:16;;;;;;;39.55;13.02;;;;;;;;;;5056151;28;20111;-63
2021/11/29 03:51:41;;;;;;;42.30;13.57;;;;;;;;;;5064704;28;20033;-63
2021/11/29 03:54:07;;;;;;;40.47;12.13;;;;;;;;;;5062537;28;20422;-62
2021/11/29 03:56:34;;;;;;;34.90;12.60;;;;;;;;;;5061281;28;20135;-62
2021/11/29 03:58:59;;;;;;;30.80;11.40;;;;;;;;;;5061805;28;20024;-63
2021/11/29 04:01:25;;;;;;;32.15;11.38;;;;;;;;;;5059401;28;20025;-63
2021/11/29 04:03:51;;;;;;;33.08;12.32;;;;;;;;;;5059331;28;20125;-62
2021/11/29 04:06:17;;;;;;;35.72;12.30;;;;;;;;;;5057587;28;20161;-62
2021/11/29 04:08:43;;;;;;;32.47;12.05;;;;;;;;;;5062013;28;20107;-62
2021/11/29 04:11:08;;;;;;;38.25;13.00;;;;;;;;;;5061831;28;20032;-63
2021/11/29 04:13:34;;;;;;;32.92;11.45;;;;;;;;;;5061991;28;20376;-62
2021/11/29 04:16:00;;;;;;;33.25;12.57;;;;;;;;;;5059490;28;20111;-62
2021/11/29 04:18:25;;;;;;;44.42;13.00;;;;;;;;;;5057758;28;20036;-62
2021/11/29 04:20:51;;;;;;;35.03;13.35;;;;;;;;;;5063909;28;20246;-62
2021/11/29 04:23:17;;;;;;;37.92;12.40;;;;;;;;;;5055137;28;20032;-62
2021/11/29 04:25:49;;;;;;;33.20;11.60;;;;;;;;;;5053798;28;20032;-62
2021/11/29 04:28:15;;;;;;;35.67;12.48;;;;;;;;;;5057637;28;20032;-62
2021/11/29 04:30:41;;;;;;;43.85;13.02;;;;;;;;;;5060030;28;20040;-62
2021/11/29 04:33:07;;;;;;;33.90;11.98;;;;;;;;;;5063537;28;20407;-62
2021/11/29 04:35:33;;;;;;;30.58;11.10;;;;;;;;;;5063703;28;20135;-62
2021/11/29 04:37:59;;;;;;;39.55;11.73;;;;;;;;;;5056987;28;20174;-62
2021/11/29 04:40:24;;;;;;;33.92;11.98;;;;;;;;;;5062140;28;20067;-63
2021/11/29 04:42:50;;;;;;;30.08;10.65;;;;;;;;;;5061449;28;20606;-62
2021/11/29 04:45:15;;;;;;;40.58;11.77;;;;;;;;;;5061964;28;20024;-62
2021/11/29 04:47:41;;;;;;;35.88;11.80;;;;;;;;;;5054665;28;20056;-62
2021/11/29 04:50:07;;;;;;;27.88;10.20;;;;;;;;;;5060938;28;20039;-62
2021/11/29 04:52:33;;;;;;;34.55;11.00;;;;;;;;;;5063669;28;20131;-62
2021/11/29 04:54:59;;;;;;;33.88;10.63;;;;;;;;;;5064493;28;20035;-62
2021/11/29 04:57:25;;;;;;;27.98;10.27;;;;;;;;;;5065078;28;20024;-62
2021/11/29 04:59:51;;;;;;;27.05;10.18;;;;;;;;;;5062273;28;20081;-61
2021/11/29 05:02:16;;;;;;;34.63;10.93;;;;;;;;;;5064522;28;20151;-62
2021/11/29 05:04:46;;;;;;;30.75;10.73;;;;;;;;;;5065930;28;20040;-62
2021/11/29 05:07:12;;;;;;;33.65;11.23;;;;;;;;;;5063391;28;20488;-63
2021/11/29 05:09:40;;;;;;;36.00;10.82;;;;;;;;;;5065955;28;20158;-63
2021/11/29 05:12:07;;;;;;;31.50;11.52;;;;;;;;;;5083091;28;20085;-62
2021/11/29 05:14:32;;;;;;;35.20;11.15;;;;;;;;;;5062907;28;20579;-62
2021/11/29 05:16:58;;;;;;;32.85;11.18;;;;;;;;;;5056459;28;20036;-63
2021/11/29 05:19:23;;;;;;;31.48;11.52;;;;;;;;;;5064335;28;20032;-63
2021/11/29 05:21:49;;;;;;;37.65;11.13;;;;;;;;;;5063503;28;20036;-62
2021/11/29 05:24:14;;;;;;;35.25;12.30;;;;;;;;;;5061550;28;20029;-63
2021/11/29 05:26:40;;;;;;;33.45;11.50;;;;;;;;;;5062412;28;20402;-63
2021/11/29 05:29:05;;;;;;;32.55;11.45;;;;;;;;;;5063886;28;20028;-63
2021/11/29 05:31:31;;;;;;;44.60;12.90;;;;;;;;;;5059346;28;20112;-63
2021/11/29 05:33:57;;;;;;;41.22;13.07;;;;;;;;;;5065629;28;20483;-63
2021/11/29 05:36:22;;;;;;;36.63;12.30;;;;;;;;;;5067207;28;20501;-63
2021/11/29 05:38:48;;;;;;;32.58;11.18;;;;;;;;;;5077083;28;20039;-64
2021/11/29 05:41:13;;;;;;;31.40;11.27;;;;;;;;;;5063342;28;20178;-64
2021/11/29 05:43:39;;;;;;;31.75;11.75;;;;;;;;;;5061080;28;20055;-63
2021/11/29 05:46:07;;;;;;;33.65;10.25;;;;;;;;;;5057301;28;20078;-62
2021/11/29 05:48:33;;;;;;;34.00;11.57;;;;;;;;;;5064699;28;20054;-62
2021/11/29 05:51:00;;;;;;;29.70;11.07;;;;;;;;;;5062633;28;20044;-62
2021/11/29 05:53:26;;;;;;;34.38;9.40;;;;;;;;;;5059610;28;20043;-62
2021/11/29 05:55:52;;;;;;;37.65;11.18;;;;;;;;;;5060592;28;20025;-63
2021/11/29 05:58:18;;;;;;;30.02;10.35;;;;;;;;;;5058838;28;20024;-62
2021/11/29 06:00:44;;;;;;;21.25;6.80;;;;;;;;;;5055684;28;20514;-63
2021/11/29 06:03:09;;;;;;;23.27;8.02;;;;;;;;;;5059715;28;20399;-62
2021/11/29 06:05:35;;;;;;;28.30;8.15;;;;;;;;;;5047971;28;20041;-62
2021/11/29 06:08:00;;;;;;;26.85;7.30;;;;;;;;;;5065331;28;20044;-63
2021/11/29 06:10:26;;;;;;;28.15;8.45;;;;;;;;;;5065395;28;20316;-62
2021/11/29 06:12:52;;;;;;;25.13;7.90;;;;;;;;;;5065519;28;20114;-62
2021/11/29 06:15:17;;;;;;;20.55;8.07;;;;;;;;;;5063495;28;20037;-63
2021/11/29 06:17:44;;;;;;;28.52;7.65;;;;;;;;;;5060048;28;20115;-63
2021/11/29 06:20:12;;;;;;;24.40;8.10;;;;;;;;;;5058335;28;20032;-61
2021/11/29 06:22:37;;;;;;;21.73;7.80;;;;;;;;;;5060477;28;20123;-62
2021/11/29 06:25:04;;;;;;;19.20;6.57;;;;;;;;;;5060232;28;20181;-61
2021/11/29 06:27:30;;;;;;;23.77;6.57;;;;;;;;;;5062249;28;20615;-61
2021/11/29 06:29:56;;;;;;;22.95;6.07;;;;;;;;;;5061658;28;20036;-62
2021/11/29 06:32:21;;;;;;;19.80;5.80;;;;;;;;;;5056642;28;20033;-60
2021/11/29 06:34:47;;;;;;;21.75;6.53;;;;;;;;;;5059587;28;20029;-62
2021/11/29 06:37:13;;;;;;;19.08;6.20;;;;;;;;;;5057036;28;20553;-61
2021/11/29 06:39:39;;;;;;;22.45;6.30;;;;;;;;;;5056888;28;20410;-61
2021/11/29 06:42:06;;;;;;;18.67;6.10;;;;;;;;;;5062334;28;20036;-61
2021/11/29 06:44:33;;;;;;;11.40;4.07;;;;;;;;;;5062036;28;20111;-61
2021/11/29 06:46:58;;;;;;;14.40;5.07;;;;;;;;;;5062634;28;20106;-61
2021/11/29 06:49:24;;;;;;;23.73;4.70;;;;;;;;;;5063222;28;20040;-62
2021/11/29 06:51:50;;;;;;;15.18;3.53;;;;;;;;;;5063110;28;20028;-62
2021/11/29 06:54:16;;;;;;;12.10;3.05;;;;;;;;;;5063186;28;20024;-62
2021/11/29 06:56:42;;;;;;;14.43;2.22;;;;;;;;;;5063539;28;20023;-63
2021/11/29 06:59:08;;;;;;;12.30;1.25;;;;;;;;;;5063463;28;20032;-61
2021/11/29 07:01:34;;;;;;;5.07;1.25;;;;;;;;;;5060029;28;20037;-61
2021/11/29 07:04:00;;;;;;;9.05;1.75;;;;;;;;;;5064387;28;20040;-62
2021/11/29 07:06:26;;;;;;;2.75;0.45;;;;;;;;;;5062002;28;20055;-62
2021/11/29 07:08:52;;;;;;;5.90;0.80;;;;;;;;;;5059717;28;20537;-62
2021/11/29 07:11:17;;;;;;;5.57;1.05;;;;;;;;;;5060619;28;20036;-62
2021/11/29 07:13:44;;;;;;;10.70;1.52;;;;;;;;;;5062678;28;20032;-62
2021/11/29 07:16:09;;;;;;;11.40;1.58;;;;;;;;;;5064347;28;20095;-61
2021/11/29 07:18:35;;;;;;;4.55;1.25;;;;;;;;;;5062324;28;20107;-62
2021/11/29 07:21:00;;;;;;;13.43;1.65;;;;;;;;;;5063053;28;20655;-62
2021/11/29 07:23:26;;;;;;;5.22;0.90;;;;;;;;;;5061240;28;20086;-62
2021/11/29 07:25:52;;;;;;;8.55;1.27;;;;;;;;;;5064023;28;20095;-62
2021/11/29 07:28:17;;;;;;;6.65;1.10;;;;;;;;;;5062732;28;20040;-61
2021/11/29 07:30:43;;;;;;;7.93;1.23;;;;;;;;;;5065584;28;20040;-62
2021/11/29 07:33:08;;;;;;;3.95;0.90;;;;;;;;;;5063726;28;20123;-62
2021/11/29 07:35:34;;;;;;;4.97;0.82;;;;;;;;;;5063455;28;20239;-62
2021/11/29 07:38:00;;;;;;;9.57;0.73;;;;;;;;;;5062032;28;20040;-63
2021/11/29 07:40:29;;;;;;;5.13;0.40;;;;;;;;;;5060648;28;20052;-62
2021/11/29 07:42:59;;;;;;;6.22;1.63;;;;;;;;;;5062497;28;20048;-62
2021/11/29 07:45:26;;;;;;;5.13;1.13;;;;;;;;;;5058695;28;20062;-62
2021/11/29 07:47:51;;;;;;;12.63;2.90;;;;;;;;;;5060438;28;20442;-62
2021/11/29 07:50:18;;;;;;;9.40;1.75;;;;;;;;;;5061336;28;20028;-63
2021/11/29 07:52:46;;;;;;;16.33;2.70;;;;;;;;;;5060029;28;20045;-64
2021/11/29 07:55:14;;;;;;;14.85;2.72;;;;;;;;;;5063108;28;20028;-62
2021/11/29 07:57:40;;;;;;;16.90;2.28;;;;;;;;;;5057310;28;20037;-62
2021/11/29 08:00:10;;;;;;;11.82;2.10;;;;;;;;;;5061988;28;20039;-63
2021/11/29 08:02:36;;;;;;;8.20;2.00;;;;;;;;;;5061112;28;20330;-63
2021/11/29 08:05:01;;;;;;;14.55;2.80;;;;;;;;;;5058968;28;20032;-64
2021/11/29 08:07:27;;;;;;;7.97;1.98;;;;;;;;;;5055584;28;20361;-62
2021/11/29 08:09:53;;;;;;;11.35;2.00;;;;;;;;;;5060898;28;20038;-62
2021/11/29 08:12:19;;;;;;;8.07;1.58;;;;;;;;;;5061695;28;20108;-62
2021/11/29 08:14:44;;;;;;;16.73;1.80;;;;;;;;;;5056065;28;20257;-63
2021/11/29 08:17:10;;;;;;;9.80;1.88;;;;;;;;;;5055072;28;20032;-62
2021/11/29 08:19:35;;;;;;;9.90;1.88;;;;;;;;;;5061277;28;20035;-62
2021/11/29 08:22:01;;;;;;;7.18;1.23;;;;;;;;;;5063156;28;20032;-62
2021/11/29 08:24:26;;;;;;;18.50;1.40;;;;;;;;;;5059793;28;20406;-65
2021/11/29 08:26:52;;;;;;;5.63;1.10;;;;;;;;;;5059346;28;20029;-66
2021/11/29 08:29:17;;;;;;;9.93;1.55;;;;;;;;;;5063751;28;20116;-65
2021/11/29 08:31:43;;;;;;;4.22;1.10;;;;;;;;;;5067132;28;20043;-65
2021/11/29 08:34:10;;;;;;;15.45;2.60;;;;;;;;;;5067193;28;20081;-65
2021/11/29 08:36:36;;;;;;;16.92;2.60;;;;;;;;;;5068564;28;20103;-65
2021/11/29 08:39:06;;;;;;;20.20;3.78;;;;;;;;;;5068387;28;20028;-66
2021/11/29 08:41:33;;;;;;;9.63;1.67;;;;;;;;;;5063767;28;20403;-65
2021/11/29 08:43:59;;;;;;;4.68;1.40;;;;;;;;;;5063338;28;20514;-65
2021/11/29 08:46:25;;;;;;;7.65;1.15;;;;;;;;;;5068185;28;20036;-65
2021/11/29 08:48:51;;;;;;;8.60;0.77;;;;;;;;;;5061181;28;20039;-62
2021/11/29 08:51:17;;;;;;;3.13;1.10;;;;;;;;;;5069270;28;20395;-63
2021/11/29 08:53:44;;;;;;;9.52;0.77;;;;;;;;;;5068955;28;20753;-63
2021/11/29 08:56:10;;;;;;;4.72;0.68;;;;;;;;;;5064974;28;20032;-63
2021/11/29 08:58:36;;;;;;;2.80;0.95;;;;;;;;;;5066666;28;20074;-62
2021/11/29 09:01:03;;;;;;;4.57;1.63;;;;;;;;;;5062638;28;20123;-63
2021/11/29 09:03:29;;;;;;;4.25;0.70;;;;;;;;;;5068237;28;20032;-63
2021/11/29 09:05:55;;;;;;;5.32;1.10;;;;;;;;;;5066927;28;20410;-63
2021/11/29 09:08:21;;;;;;;4.45;0.95;;;;;;;;;;5064416;28;20685;-62
2021/11/29 09:10:49;;;;;;;7.05;1.27;;;;;;;;;;5063672;28;20025;-63
2021/11/29 09:13:14;;;;;;;5.18;1.02;;;;;;;;;;5065227;28;20028;-63
2021/11/29 09:15:42;;;;;;;3.17;0.82;;;;;;;;;;5069509;28;20033;-63
2021/11/29 09:18:08;;;;;;;2.65;1.02;;;;;;;;;;5064832;28;20024;-63
2021/11/29 09:20:34;;;;;;;2.58;0.90;;;;;;;;;;5056181;28;20111;-63
2021/11/29 09:23:01;;;;;;;3.83;1.30;;;;;;;;;;5065572;28;20182;-63
2021/11/29 09:25:27;;;;;;;4.43;1.10;;;;;;;;;;5059304;28;20032;-63
2021/11/29 09:27:53;;;;;;;4.75;1.10;;;;;;;;;;5066256;28;20450;-64
2021/11/29 09:30:20;;;;;;;5.53;1.30;;;;;;;;;;5066957;28;20029;-63
2021/11/29 09:32:45;;;;;;;2.60;1.00;;;;;;;;;;5062468;28;20123;-63
2021/11/29 09:35:14;;;;;;;3.20;0.95;;;;;;;;;;5059317;28;20154;-63
2021/11/29 09:37:42;;;;;;;6.25;1.30;;;;;;;;;;5065313;28;20033;-63
2021/11/29 09:40:14;;;;;;;6.20;1.33;;;;;;;;;;5064627;28;20040;-63
2021/11/29 09:42:40;;;;;;;4.10;1.80;;;;;;;;;;5064233;28;20617;-63
2021/11/29 09:45:08;;;;;;;7.57;2.03;;;;;;;;;;5066065;28;20033;-62
2021/11/29 09:47:34;;;;;;;5.90;1.63;;;;;;;;;;5063724;28;20645;-62
2021/11/29 09:50:00;;;;;;;6.63;1.83;;;;;;;;;;5065825;28;20032;-64
2021/11/29 09:52:26;;;;;;;5.35;2.13;;;;;;;;;;5065348;28;20115;-63
2021/11/29 09:54:51;;;;;;;4.10;1.95;;;;;;;;;;5060317;28;20175;-63
2021/11/29 09:57:18;;;;;;;12.52;2.15;;;;;;;;;;5064500;28;20052;-63
2021/11/29 09:59:44;;;;;;;10.43;2.38;;;;;;;;;;5065567;28;20039;-63
2021/11/29 10:02:14;;;;;;;7.30;2.08;;;;;;;;;;5065205;28;20029;-63
2021/11/29 10:04:48;;;;;;;5.90;2.15;;;;;;;;;;5064803;28;20028;-63
2021/11/29 10:07:38;;;;;;;8.55;2.03;;;;;;;;;;5063879;28;20545;-64
2021/11/29 10:10:15;;;;;;;8.75;2.90;;;;;;;;;;5063214;28;20094;-62
2021/11/29 10:12:41;;;;;;;5.60;2.63;;;;;;;;;;5065759;28;20047;-62
2021/11/29 10:15:22;;;;;;;4.35;1.98;;;;;;;;;;5065197;28;20495;-62
2021/11/29 10:17:51;;;;;;;6.97;2.65;;;;;;;;;;5065342;28;20040;-62
2021/11/29 10:20:16;;;;;;;8.43;2.35;;;;;;;;;;5064004;28;20126;-61
2021/11/29 10:23:08;;;;;;;6.90;2.60;;;;;;;;;;5057593;28;20487;-59
2021/11/29 10:25:42;;;;;;;5.53;2.38;;;;;;;;;;5063388;28;20051;-59
2021/11/29 10:28:27;;;;;;;10.48;3.20;;;;;;;;;;5067102;28;20031;-59
2021/11/29 10:31:32;;;;;;;9.55;3.10;;;;;;;;;;5057858;28;20060;-59
2021/11/29 10:34:19;;;;;;;9.75;3.13;;;;;;;;;;5056536;28;20032;-59
2021/11/29 10:36:46;;;;;;;12.23;3.67;;;;;;;;;;5061248;28;20096;-59
2021/11/29 10:39:16;;;;;;;6.18;2.40;;;;;;;;;;5064334;28;20025;-59
2021/11/29 10:41:44;;;;;;;10.05;4.03;;;;;;;;;;5063995;28;20031;-59
2021/11/29 10:44:31;;;;;;;14.52;3.50;;;;;;;;;;5064709;28;20028;-60
2021/11/29 10:47:00;;;;;;;11.93;4.10;;;;;;;;;;5059739;28;20075;-60
2021/11/29 10:49:29;;;;;;;9.88;3.78;;;;;;;;;;5060399;28;20032;-60
2021/11/29 10:51:57;;;;;;;13.93;3.70;;;;;;;;;;5064762;28;20033;-60
2021/11/29 10:54:25;;;;;;;19.83;4.53;;;;;;;;;;5063064;28;20029;-59
2021/11/29 10:56:52;;;;;;;13.38;4.60;;;;;;;;;;5057956;28;20078;-60
2021/11/29 10:59:20;;;;;;;18.45;4.97;;;;;;;;;;5061459;28;20402;-59
2021/11/29 11:02:00;;;;;;;10.43;3.88;;;;;;;;;;5067897;28;20419;-60
2021/11/29 11:04:28;;;;;;;13.77;4.95;;;;;;;;;;5060990;28;20056;-59
2021/11/29 11:06:56;;;;;;;14.63;5.63;;;;;;;;;;5063850;28;20075;-60
2021/11/29 11:09:34;;;;;;;13.98;4.68;;;;;;;;;;5064230;28;20012;-60
2021/11/29 11:12:02;;;;;;;11.82;3.80;;;;;;;;;;5062574;28;20028;-60
2021/11/29 11:14:31;;;;;;;12.57;4.60;;;;;;;;;;5064951;28;20030;-60
2021/11/29 11:16:58;;;;;;;14.98;4.28;;;;;;;;;;5062030;28;20031;-60
2021/11/29 11:19:27;;;;;;;13.45;4.10;;;;;;;;;;5062100;28;20103;-60
2021/11/29 11:21:58;;;;;;;10.40;4.72;;;;;;;;;;5066647;28;20025;-60
2021/11/29 11:24:33;;;;;;;23.73;5.40;;;;;;;;;;5060710;28;20033;-60
2021/11/29 11:27:00;;;;;;;16.10;5.82;;;;;;;;;;5059577;28;20044;-60
2021/11/29 11:29:40;;;;;;;17.80;6.32;;;;;;;;;;5056250;28;20032;-60
2021/11/29 11:32:12;;;;;;;17.05;6.57;;;;;;;;;;5059524;28;20037;-57
2021/11/29 11:34:39;;;;;;;16.15;6.50;;;;;;;;;;5054498;28;20403;-57
2021/11/29 11:37:05;;;;;;;16.75;6.45;;;;;;;;;;5063720;28;20028;-59
2021/11/29 11:39:32;;;;;;;18.33;6.68;;;;;;;;;;5062139;28;20458;-61
2021/11/29 11:41:58;;;;;;;14.25;5.60;;;;;;;;;;5044293;28;20045;-60
2021/11/29 11:44:24;;;;;;;19.15;6.57;;;;;;;;;;5064625;28;20083;-60
2021/11/29 11:46:50;;;;;;;13.23;5.68;;;;;;;;;;5062037;28;20055;-57
2021/11/29 11:49:16;;;;;;;28.15;8.32;;;;;;;;;;5046097;28;20029;-60
2021/11/29 11:51:42;;;;;;;23.70;6.70;;;;;;;;;;5062467;28;20471;-60
2021/11/29 11:54:07;;;;;;;34.30;10.00;;;;;;;;;;5060550;28;20398;-60
2021/11/29 11:56:33;;;;;;;27.85;8.55;;;;;;;;;;5061099;28;20585;-60
2021/11/29 11:59:13;;;;;;;14.27;5.90;;;;;;;;;;5062618;28;20028;-60
2021/11/29 12:01:43;;;;;;;24.25;6.95;;;;;;;;;;5065234;28;20162;-60
2021/11/29 12:04:13;;;;;;;23.48;7.10;;;;;;;;;;5067255;28;21120;-60
2021/11/29 12:06:44;;;;;;;24.08;6.82;;;;;;;;;;5065376;28;20029;-59
2021/11/29 12:09:13;;;;;;;17.58;7.57;;;;;;;;;;5064592;28;20406;-59
2021/11/29 12:11:45;;;;;;;22.30;7.55;;;;;;;;;;5063428;28;20028;-58
2021/11/29 12:14:23;;;;;;;26.77;8.80;;;;;;;;;;5066342;28;20119;-58
2021/11/29 12:16:50;;;;;;;17.10;6.57;;;;;;;;;;5067962;28;20047;-59
2021/11/29 12:19:24;;;;;;;25.50;6.93;;;;;;;;;;5065274;28;20067;-59
2021/11/29 12:21:55;;;;;;;29.05;9.48;;;;;;;;;;5066528;28;20033;-58
2021/11/29 12:24:25;;;;;;;16.42;7.15;;;;;;;;;;5068227;28;20016;-59
2021/11/29 12:26:53;;;;;;;24.42;8.15;;;;;;;;;;5061910;28;20391;-59
2021/11/29 12:29:22;;;;;;;19.20;6.82;;;;;;;;;;5066922;28;20025;-59
2021/11/29 12:32:03;;;;;;;22.08;7.50;;;;;;;;;;5056801;28;20467;-58
2021/11/29 12:34:53;;;;;;;18.30;6.35;;;;;;;;;;5069753;28;20028;-59
2021/11/29 12:37:25;;;;;;;16.42;7.25;;;;;;;;;;5063190;28;20021;-59
2021/11/29 12:40:17;;;;;;;24.38;6.00;;;;;;;;;;5063906;28;20372;-59
2021/11/29 12:42:43;;;;;;;11.50;5.10;;;;;;;;;;5062156;28;20179;-57
2021/11/29 12:45:08;;;;;;;24.27;7.53;;;;;;;;;;5068974;28;20530;-61
2021/11/29 12:47:51;;;;;;;18.95;5.43;;;;;;;;;;5063376;28;20033;-61
2021/11/29 12:50:52;;;;;;;19.00;6.07;;;;;;;;;;5067847;28;20023;-61
2021/11/29 12:53:27;;;;;;;21.80;7.30;;;;;;;;;;5061516;28;20060;-61
2021/11/29 12:56:14;;;;;;;20.88;7.50;;;;;;;;;;5068041;28;20013;-61
2021/11/29 12:58:52;;;;;;;22.48;7.03;;;;;;;;;;5068378;28;20059;-61
2021/11/29 13:01:18;;;;;;;25.92;7.95;;;;;;;;;;5063485;28;20035;-60
2021/11/29 13:03:53;;;;;;;21.42;8.82;;;;;;;;;;5066509;28;20028;-60
2021/11/29 13:06:23;;;;;;;21.08;8.88;;;;;;;;;;5062895;28;20034;-61
2021/11/29 13:08:58;;;;;;;19.20;7.72;;;;;;;;;;5067863;28;20550;-63
2021/11/29 13:11:35;;;;;;;31.92;11.32;;;;;;;;;;5061146;28;20040;-60
2021/11/29 13:14:10;;;;;;;22.27;9.73;;;;;;;;;;5063661;28;20457;-61
2021/11/29 13:16:39;;;;;;;32.15;10.18;;;;;;;;;;5062611;28;20234;-61
2021/11/29 13:19:04;;;;;;;36.42;9.38;;;;;;;;;;5065005;28;20060;-62
2021/11/29 13:21:38;;;;;;;35.38;10.68;;;;;;;;;;5063599;28;20098;-60
2021/11/29 13:24:28;;;;;;;37.15;11.55;;;;;;;;;;5067660;28;20518;-62
2021/11/29 13:27:08;;;;;;;24.88;9.77;;;;;;;;;;5064466;28;20542;-62
2021/11/29 13:29:36;;;;;;;30.33;10.27;;;;;;;;;;5059084;28;20510;-60
2021/11/29 13:32:05;;;;;;;27.83;9.63;;;;;;;;;;5066753;28;20032;-61
2021/11/29 13:34:33;;;;;;;36.65;10.18;;;;;;;;;;5066242;28;20028;-61
2021/11/29 13:37:01;;;;;;;27.33;10.30;;;;;;;;;;5064977;28;20035;-61
2021/11/29 13:39:49;;;;;;;37.15;10.55;;;;;;;;;;5068733;28;20032;-61
2021/11/29 13:42:20;;;;;;;23.20;8.35;;;;;;;;;;5065886;28;20123;-61
2021/11/29 13:44:52;;;;;;;15.23;7.18;;;;;;;;;;5069204;28;20036;-61
2021/11/29 13:47:22;;;;;;;17.55;7.13;;;;;;;;;;5060969;28;20037;-61
2021/11/29 13:50:02;;;;;;;20.98;7.72;;;;;;;;;;5065997;28;20444;-62
2021/11/29 13:52:29;;;;;;;20.05;7.60;;;;;;;;;;5060833;28;20115;-61
2021/11/29 13:54:56;;;;;;;25.73;6.35;;;;;;;;;;5067317;28;20377;-61
2021/11/29 13:57:33;;;;;;;19.40;7.00;;;;;;;;;;5061208;28;20017;-61
2021/11/29 14:00:39;;;;;;;18.88;6.80;;;;;;;;;;5066934;28;20043;-61
2021/11/29 14:03:26;;;;;;;12.60;4.68;;;;;;;;;;5062670;28;20016;-63
2021/11/29 14:06:06;;;;;;;13.18;4.05;;;;;;;;;;5057066;28;20032;-62
2021/11/29 14:08:39;;;;;;;14.50;4.78;;;;;;;;;;5066708;28;20035;-62
2021/11/29 14:11:08;;;;;;;11.68;4.93;;;;;;;;;;5066909;28;20407;-61
2021/11/29 14:13:52;;;;;;;9.60;3.75;;;;;;;;;;5060759;28;20074;-62
2021/11/29 14:16:25;;;;;;;9.52;4.35;;;;;;;;;;5063966;28;20600;-63
2021/11/29 14:18:51;;;;;;;15.02;4.22;;;;;;;;;;5062227;28;20051;-64
2021/11/29 14:21:31;;;;;;;12.98;4.55;;;;;;;;;;5058391;28;20024;-60
2021/11/29 14:24:03;;;;;;;12.88;3.08;;;;;;;;;;5060283;28;20032;-60
2021/11/29 14:26:34;;;;;;;10.13;3.38;;;;;;;;;;5061976;28;20033;-60
2021/11/29 14:29:03;;;;;;;10.85;3.30;;;;;;;;;;5065357;28;20028;-61
2021/11/29 14:31:29;;;;;;;10.23;3.95;;;;;;;;;;5064096;28;20450;-60
2021/11/29 14:33:55;;;;;;;13.80;4.07;;;;;;;;;;5065881;28;20025;-60